Time;durP1;ratioP1;P1;durP2;ratioP2;P2;SDS_P1;SDS_P2;PMS_P1;PMS_P2;Temp;Humidity;BMP_temperature;BMP_pressure;BME280_temperature;BME280_humidity;BME280_pressure;Samples;Min_cycle;Max_cycle;Signal;HPM_P1;HPM_P2
2022/08/10 00:00:23;;;;;;;2.40;2.20;;;;;;;22.50;40.14;99385.72;6948917;28;20243;-81
2022/08/10 00:03:45;;;;;;;3.43;2.43;;;;;;;22.75;40.14;99392.16;6948628;28;20266;-81
2022/08/10 00:07:06;;;;;;;4.83;2.20;;;;;;;22.72;40.25;99397.38;6948303;28;20247;-82
2022/08/10 00:10:28;;;;;;;2.43;2.23;;;;;;;22.70;40.53;99396.78;6948399;28;20229;-82
2022/08/10 00:13:50;;;;;;;2.57;1.90;;;;;;;22.60;40.78;99392.09;6948096;28;20229;-82
2022/08/10 00:17:12;;;;;;;2.67;2.23;;;;;;;22.47;41.04;99400.00;6949311;28;20263;-82
2022/08/10 00:20:34;;;;;;;2.40;2.20;;;;;;;22.53;41.01;99396.19;6948080;28;20229;-82
2022/08/10 00:23:56;;;;;;;2.50;2.30;;;;;;;22.16;41.85;99400.88;6947932;28;20327;-81
2022/08/10 00:27:17;;;;;;;2.53;2.23;;;;;;;22.09;41.97;99386.56;6948217;28;20327;-82
2022/08/10 00:30:39;;;;;;;2.23;2.03;;;;;;;22.18;41.98;99383.03;6946792;28;20227;-82
2022/08/10 00:34:02;;;;;;;3.10;2.23;;;;;;;22.04;42.27;99395.59;6948124;28;20258;-82
2022/08/10 00:37:23;;;;;;;2.87;2.20;;;;;;;22.15;42.36;99401.97;6948204;28;20356;-82
2022/08/10 00:40:45;;;;;;;2.47;2.27;;;;;;;22.10;42.53;99391.78;6948541;28;20238;-81
2022/08/10 00:44:07;;;;;;;2.40;2.20;;;;;;;22.19;41.85;99406.66;6948527;28;20231;-82
2022/08/10 00:47:28;;;;;;;2.40;2.20;;;;;;;21.86;42.59;99378.72;6948692;28;20214;-81
2022/08/10 00:50:51;;;;;;;2.43;2.23;;;;;;;22.01;42.54;99407.09;6949260;28;20246;-82
2022/08/10 00:54:13;;;;;;;2.53;2.33;;;;;;;22.11;42.43;99393.44;6948011;28;20247;-81
2022/08/10 00:57:35;;;;;;;4.63;2.33;;;;;;;21.88;42.93;99393.84;6947396;28;20205;-82
2022/08/10 01:00:56;;;;;;;5.00;2.13;;;;;;;22.02;42.75;99397.75;6947924;28;20213;-82
2022/08/10 01:04:18;;;;;;;2.63;2.20;;;;;;;21.95;42.84;99391.69;6947044;28;20228;-81
2022/08/10 01:07:53;;;;;;;2.27;2.13;;;;;;;21.78;43.34;99387.44;6946941;28;20255;-82
2022/08/10 01:11:19;;;;;;;2.83;2.40;;;;;;;21.91;43.00;99382.34;6947356;28;20215;-81
2022/08/10 01:14:47;;;;;;;2.47;2.27;;;;;;;21.50;43.82;99369.34;6946600;28;20231;-82
2022/08/10 01:18:12;;;;;;;2.93;2.60;;;;;;;21.68;43.71;99392.84;6947068;28;20249;-82
2022/08/10 01:22:07;;;;;;;3.07;2.87;;;;;;;21.62;43.56;99350.78;6947106;28;20632;-81
2022/08/10 01:25:43;;;;;;;4.20;3.03;;;;;;;20.93;45.30;99394.00;6941823;28;20269;-81
2022/08/10 01:29:41;;;;;;;3.17;2.77;;;;;;;21.03;45.79;99394.94;6947470;28;20265;-81
2022/08/10 01:33:07;;;;;;;2.90;2.70;;;;;;;21.57;43.68;99391.91;6945042;28;20318;-81
2022/08/10 01:36:31;;;;;;;3.80;3.20;;;;;;;20.49;47.30;99397.81;6946928;28;20235;-82
2022/08/10 01:39:57;;;;;;;3.77;3.27;;;;;;;20.76;46.53;99390.50;6946638;28;20206;-82
2022/08/10 01:43:20;;;;;;;3.23;2.93;;;;;;;21.13;45.57;99403.28;6946752;28;20230;-81
2022/08/10 01:46:45;;;;;;;3.77;3.40;;;;;;;20.52;46.59;99392.66;6947051;28;20230;-81
2022/08/10 01:50:12;;;;;;;3.50;3.20;;;;;;;20.98;45.83;99405.84;6947260;28;20211;-82
2022/08/10 01:53:39;;;;;;;3.60;3.30;;;;;;;21.04;45.87;99412.22;6946924;28;20230;-82
2022/08/10 01:57:02;;;;;;;3.23;2.93;;;;;;;21.13;45.46;99396.97;6947054;28;20226;-81
2022/08/10 02:00:24;;;;;;;3.37;3.10;;;;;;;21.15;45.41;99403.84;6945885;28;20341;-82
2022/08/10 02:03:47;;;;;;;3.17;2.97;;;;;;;20.65;46.53;99406.00;6946594;28;20739;-82
2022/08/10 02:07:13;;;;;;;3.93;3.13;;;;;;;20.78;46.16;99400.13;6946831;28;20233;-81
2022/08/10 02:10:35;;;;;;;5.37;3.10;;;;;;;20.92;46.31;99417.03;6946368;28;20228;-82
2022/08/10 02:13:58;;;;;;;3.50;3.20;;;;;;;20.87;46.23;99415.00;6946435;28;20253;-82
2022/08/10 02:17:22;;;;;;;2.87;2.53;;;;;;;21.07;45.83;99415.28;6950859;28;20219;-82
2022/08/10 02:20:46;;;;;;;4.10;2.87;;;;;;;21.22;45.65;99422.84;6951327;28;20203;-82
2022/08/10 02:24:12;;;;;;;3.00;2.80;;;;;;;21.27;44.97;99395.47;6951361;28;20262;-81
2022/08/10 02:27:34;;;;;;;6.47;3.10;;;;;;;21.55;44.54;99407.78;6950610;28;20202;-82
2022/08/10 02:30:59;;;;;;;3.97;3.13;;;;;;;21.32;45.07;99388.09;6951161;28;20218;-81
2022/08/10 02:34:21;;;;;;;2.97;2.77;;;;;;;21.24;45.38;99397.63;6951648;28;20274;-81
2022/08/10 02:37:46;;;;;;;3.30;2.70;;;;;;;21.12;45.73;99398.91;6950891;28;20598;-82
2022/08/10 02:41:12;;;;;;;4.57;2.80;;;;;;;21.12;45.70;99403.53;6951118;28;20296;-82
2022/08/10 02:44:37;;;;;;;4.37;2.80;;;;;;;21.06;45.57;99396.34;6950784;28;20320;-81
2022/08/10 02:48:01;;;;;;;3.77;3.00;;;;;;;20.94;46.48;99409.38;6950162;28;20247;-81
2022/08/10 02:51:27;;;;;;;3.33;2.70;;;;;;;20.83;46.16;99392.75;6950632;28;20299;-81
2022/08/10 02:54:52;;;;;;;3.10;2.80;;;;;;;20.90;46.43;99400.84;6949746;28;20224;-82
2022/08/10 02:58:20;;;;;;;3.23;3.03;;;;;;;20.57;46.90;99408.34;6950097;28;20238;-81
2022/08/10 03:01:45;;;;;;;4.47;3.10;;;;;;;20.73;47.09;99400.06;6950110;28;20207;-81
2022/08/10 03:05:09;;;;;;;3.33;3.10;;;;;;;20.13;48.14;99409.38;6950305;28;20376;-81
2022/08/10 03:08:33;;;;;;;4.17;2.97;;;;;;;20.49;47.82;99401.38;6950140;28;20203;-82
2022/08/10 03:11:56;;;;;;;3.30;3.07;;;;;;;19.92;49.37;99412.84;6949957;28;20236;-81
2022/08/10 03:15:21;;;;;;;4.13;3.07;;;;;;;20.45;47.74;99419.41;6949894;28;20223;-81
2022/08/10 03:18:43;;;;;;;4.33;3.13;;;;;;;19.97;49.20;99380.91;6949385;28;20203;-80
2022/08/10 03:22:05;;;;;;;4.30;2.83;;;;;;;20.41;47.41;99396.34;6949750;28;20234;-82
2022/08/10 03:25:27;;;;;;;5.10;2.80;;;;;;;20.59;47.38;99395.22;6949416;28;20592;-81
2022/08/10 03:28:48;;;;;;;3.53;3.23;;;;;;;20.04;48.88;99413.59;6948748;28;20212;-81
2022/08/10 03:32:12;;;;;;;3.90;3.10;;;;;;;20.00;49.18;99415.16;6948794;28;20211;-80
2022/08/10 03:35:34;;;;;;;3.47;3.10;;;;;;;20.08;48.63;99412.88;6948793;28;20660;-82
2022/08/10 03:38:56;;;;;;;3.60;3.10;;;;;;;20.25;48.17;99413.66;6948243;28;20294;-81
2022/08/10 03:42:19;;;;;;;3.33;3.00;;;;;;;20.26;48.67;99418.06;6949619;28;20699;-81
2022/08/10 03:45:41;;;;;;;3.00;2.80;;;;;;;20.27;48.18;99422.44;6949163;28;20223;-81
2022/08/10 03:49:05;;;;;;;3.90;2.80;;;;;;;20.47;47.89;99428.22;6950838;28;20207;-81
2022/08/10 03:52:28;;;;;;;3.33;3.03;;;;;;;20.48;47.45;99396.16;6950736;28;20235;-82
2022/08/10 03:55:50;;;;;;;4.80;3.00;;;;;;;20.66;46.75;99401.31;6951410;28;20253;-81
2022/08/10 03:59:13;;;;;;;3.37;3.07;;;;;;;20.56;47.48;99415.72;6950733;28;20209;-82
2022/08/10 04:02:35;;;;;;;3.53;2.80;;;;;;;20.48;47.83;99418.91;6950130;28;20312;-81
2022/08/10 04:05:58;;;;;;;4.53;2.90;;;;;;;20.30;48.32;99423.84;6949534;28;20234;-81
2022/08/10 04:09:19;;;;;;;3.50;3.20;;;;;;;19.92;48.99;99401.91;6952915;28;20206;-81
2022/08/10 04:12:41;;;;;;;3.60;3.27;;;;;;;19.88;49.49;99412.50;6958366;28;20722;-81
2022/08/10 04:16:03;;;;;;;3.20;2.90;;;;;;;20.24;48.34;99424.84;6950174;28;20676;-81
2022/08/10 04:19:25;;;;;;;3.63;3.33;;;;;;;20.37;48.21;99432.72;6949766;28;20195;-81
2022/08/10 04:22:52;;;;;;;3.00;2.80;;;;;;;20.45;47.84;99435.03;6950109;28;20362;-81
2022/08/10 04:26:14;;;;;;;2.93;2.70;;;;;;;20.45;47.22;99433.09;6950044;28;20242;-82
2022/08/10 04:29:36;;;;;;;5.37;3.03;;;;;;;20.45;47.47;99438.59;6948718;28;20208;-82
2022/08/10 04:32:59;;;;;;;3.83;3.17;;;;;;;20.34;48.14;99449.66;6949062;28;20316;-82
2022/08/10 04:36:22;;;;;;;2.90;2.63;;;;;;;20.43;47.91;99445.41;6949918;28;20207;-82
2022/08/10 04:39:45;;;;;;;3.57;3.10;;;;;;;20.64;47.34;99455.56;6949050;28;20270;-82
2022/08/10 04:43:07;;;;;;;3.40;3.10;;;;;;;20.55;47.26;99448.84;6950285;28;20657;-81
2022/08/10 04:46:28;;;;;;;3.97;3.40;;;;;;;20.27;47.63;99416.16;6950026;28;20230;-83
2022/08/10 04:49:50;;;;;;;3.57;3.27;;;;;;;20.35;47.78;99423.94;6950511;28;20292;-83
2022/08/10 04:53:11;;;;;;;3.60;3.30;;;;;;;20.31;48.23;99455.63;6949032;28;20232;-83
2022/08/10 04:56:36;;;;;;;3.33;3.13;;;;;;;19.99;49.02;99447.16;6948949;28;20230;-80
2022/08/10 04:59:58;;;;;;;3.93;3.03;;;;;;;20.07;48.43;99399.41;6948940;28;20218;-82
2022/08/10 05:03:19;;;;;;;3.70;3.40;;;;;;;20.27;48.15;99438.06;6951424;28;20232;-82
2022/08/10 05:06:41;;;;;;;3.87;3.53;;;;;;;20.31;48.39;99447.41;6950943;28;20277;-83
2022/08/10 05:10:02;;;;;;;3.43;3.10;;;;;;;20.25;48.26;99445.69;6945983;28;20242;-83
2022/08/10 05:13:25;;;;;;;3.53;3.23;;;;;;;20.44;48.32;99449.78;6949419;28;20230;-83
2022/08/10 05:16:52;;;;;;;3.30;3.10;;;;;;;20.30;49.12;99441.13;6960359;28;20203;-82
2022/08/10 05:20:14;;;;;;;8.40;3.30;;;;;;;20.53;48.66;99459.25;6963497;28;20549;-81
2022/08/10 05:23:35;;;;;;;3.67;3.37;;;;;;;20.52;48.17;99458.41;6949925;28;20219;-81
2022/08/10 05:26:57;;;;;;;5.00;3.30;;;;;;;20.80;48.09;99446.47;6949734;28;20247;-81
2022/08/10 05:30:21;;;;;;;3.10;2.90;;;;;;;21.11;47.67;99452.06;6925587;28;20277;-82
2022/08/10 05:33:43;;;;;;;4.50;3.20;;;;;;;21.81;45.48;99428.94;6949938;28;20223;-79
2022/08/10 05:37:06;;;;;;;4.23;3.20;;;;;;;21.78;45.15;99379.22;6950888;28;20239;-83
2022/08/10 05:40:29;;;;;;;4.60;2.83;;;;;;;21.97;45.62;99444.44;6949066;28;20210;-80
2022/08/10 05:43:50;;;;;;;3.50;3.00;;;;;;;21.95;45.37;99443.84;6950145;28;20223;-81
2022/08/10 05:47:13;;;;;;;5.10;2.93;;;;;;;22.71;44.03;99442.47;6933907;28;20312;-82
2022/08/10 05:50:35;;;;;;;4.43;3.00;;;;;;;22.98;42.82;99454.13;6955052;28;20215;-80
2022/08/10 05:53:57;;;;;;;3.47;2.60;;;;;;;22.58;43.50;99449.25;6937694;28;20230;-82
2022/08/10 05:57:21;;;;;;;4.70;2.80;;;;;;;23.45;42.27;99450.16;6928947;28;20298;-81
2022/08/10 06:00:45;;;;;;;2.90;2.70;;;;;;;23.57;41.64;99425.97;6928501;28;20219;-81
2022/08/10 06:04:09;;;;;;;2.83;2.63;;;;;;;24.33;41.05;99446.06;6928392;28;20355;-81
2022/08/10 06:07:31;;;;;;;3.17;2.50;;;;;;;24.17;41.56;99439.75;6928585;28;20243;-81
2022/08/10 06:10:55;;;;;;;2.73;2.33;;;;;;;25.46;37.31;99436.81;6928477;28;20210;-81
2022/08/10 06:17:59;;;;;;;2.43;2.23;;;;;;;26.88;31.66;99442.44;6959230;28;20199;-81
2022/08/10 06:21:22;;;;;;;3.20;2.73;;;;;;;27.49;31.67;99431.41;6976721;28;20199;-82
2022/08/10 06:24:45;;;;;;;3.50;1.93;;;;;;;27.93;31.24;99454.84;6954722;28;20358;-81
2022/08/10 06:28:09;;;;;;;2.83;2.10;;;;;;;26.77;31.86;99410.47;6924986;28;20299;-80
2022/08/10 06:31:31;;;;;;;2.57;2.07;;;;;;;26.60;32.11;99440.56;6948171;28;20210;-82
2022/08/10 06:34:55;;;;;;;2.60;2.00;;;;;;;26.70;31.75;99440.47;6954311;28;20629;-81
2022/08/10 06:38:18;;;;;;;3.37;2.20;;;;;;;25.70;33.41;99444.13;6956674;28;20582;-81
2022/08/10 06:41:45;;;;;;;2.30;2.10;;;;;;;27.25;32.16;99447.28;6946570;28;20772;-81
2022/08/10 06:45:10;;;;;;;2.13;1.93;;;;;;;27.80;30.49;99414.06;6933945;28;20238;-81
2022/08/10 06:48:34;;;;;;;2.23;1.90;;;;;;;27.77;30.18;99424.88;6929401;28;20188;-80
2022/08/10 06:51:57;;;;;;;3.23;1.83;;;;;;;27.29;30.35;99446.38;6929042;28;20208;-81
2022/08/10 06:55:21;;;;;;;2.07;1.90;;;;;;;27.61;30.58;99442.88;6933241;28;20202;-81
2022/08/10 06:58:46;;;;;;;2.37;2.17;;;;;;;27.81;30.07;99435.09;6959694;28;20211;-81
2022/08/10 07:02:10;;;;;;;5.37;2.10;;;;;;;27.26;30.58;99435.06;6952606;28;20208;-81
2022/08/10 07:05:35;;;;;;;2.47;1.90;;;;;;;28.80;30.08;99445.53;6953260;28;20232;-81
2022/08/10 07:08:58;;;;;;;1.83;1.73;;;;;;;28.55;28.93;99446.00;6953555;28;20212;-80
2022/08/10 07:12:21;;;;;;;2.80;2.13;;;;;;;29.08;28.65;99424.16;6953292;28;20258;-81
2022/08/10 07:15:44;;;;;;;3.27;2.00;;;;;;;28.89;28.13;99421.44;6948771;28;20329;-80
2022/08/10 07:19:07;;;;;;;3.57;2.10;;;;;;;29.65;27.57;99426.19;6953122;28;20815;-81
2022/08/10 07:22:31;;;;;;;2.83;1.83;;;;;;;29.23;27.68;99440.47;6952792;28;20225;-80
2022/08/10 07:25:53;;;;;;;2.77;2.00;;;;;;;29.25;27.65;99416.78;6954705;28;20246;-80
2022/08/10 07:29:17;;;;;;;3.20;2.10;;;;;;;29.95;26.98;99434.63;6952442;28;20206;-80
2022/08/10 07:32:39;;;;;;;2.77;2.03;;;;;;;30.80;26.32;99421.25;6960552;28;20252;-80
2022/08/10 07:36:01;;;;;;;5.33;2.23;;;;;;;30.62;26.12;99405.59;6951530;28;20227;-80
2022/08/10 07:39:24;;;;;;;5.73;1.90;;;;;;;30.03;27.25;99410.78;6952600;28;20191;-80
2022/08/10 07:42:47;;;;;;;5.40;1.80;;;;;;;31.60;25.65;99418.00;6951009;28;20277;-80
2022/08/10 07:46:12;;;;;;;3.27;2.07;;;;;;;31.45;25.38;99424.88;6950773;28;20714;-80
2022/08/10 07:49:36;;;;;;;2.10;1.90;;;;;;;31.65;24.97;99426.19;6950517;28;20194;-80
2022/08/10 07:53:01;;;;;;;2.53;2.07;;;;;;;29.17;27.01;99427.81;6950356;28;20241;-80
2022/08/10 07:56:26;;;;;;;3.93;1.70;;;;;;;28.40;29.22;99418.56;6950325;28;20290;-80
2022/08/10 07:59:51;;;;;;;1.87;1.77;;;;;;;29.64;28.09;99425.38;6949774;28;20233;-79
2022/08/10 08:03:15;;;;;;;4.77;2.10;;;;;;;30.66;26.54;99409.38;6950261;28;20220;-79
2022/08/10 08:06:37;;;;;;;5.17;1.90;;;;;;;30.89;25.66;99396.22;6951103;28;20400;-80
2022/08/10 08:10:00;;;;;;;6.30;2.10;;;;;;;31.63;24.62;99409.81;6950525;28;20336;-79
2022/08/10 08:13:22;;;;;;;1.93;1.73;;;;;;;31.05;25.70;99405.75;6949374;28;20564;-79
2022/08/10 08:16:46;;;;;;;1.90;1.80;;;;;;;30.95;25.15;99408.84;6950056;28;20329;-78
2022/08/10 08:20:10;;;;;;;4.83;1.90;;;;;;;31.62;24.57;99408.19;6948411;28;20847;-78
2022/08/10 08:23:32;;;;;;;1.80;1.70;;;;;;;31.84;24.34;99407.22;6948003;28;20294;-79
2022/08/10 08:26:55;;;;;;;2.27;2.03;;;;;;;30.46;24.90;99406.31;6948246;28;20615;-78
2022/08/10 08:30:17;;;;;;;3.73;2.50;;;;;;;30.56;25.89;99403.25;6946816;28;20209;-77
2022/08/10 08:33:38;;;;;;;1.87;1.77;;;;;;;31.91;23.73;99388.78;6948394;28;20227;-78
2022/08/10 08:37:02;;;;;;;3.97;1.90;;;;;;;30.29;26.12;99418.19;6947945;28;20673;-78
2022/08/10 08:40:26;;;;;;;2.47;1.90;;;;;;;31.02;24.32;99423.94;6947552;28;20194;-78
2022/08/10 08:43:54;;;;;;;2.83;1.80;;;;;;;31.00;24.54;99408.69;6947673;28;20328;-78
2022/08/10 08:47:34;;;;;;;3.47;1.80;;;;;;;31.22;23.89;99403.03;6943226;28;20296;-78
2022/08/10 08:51:05;;;;;;;1.97;1.70;;;;;;;30.27;25.17;99412.13;6947904;28;20698;-78
2022/08/10 08:54:37;;;;;;;2.30;1.73;;;;;;;31.88;22.17;99414.59;6948038;28;20221;-78
2022/08/10 08:58:07;;;;;;;2.20;1.80;;;;;;;30.70;23.97;99393.69;6947747;28;20557;-78
2022/08/10 09:01:54;;;;;;;3.40;1.70;;;;;;;31.00;23.88;99398.38;6947736;28;20225;-78
2022/08/10 09:05:26;;;;;;;4.40;1.57;;;;;;;31.36;22.57;99393.38;6947426;28;20266;-78
2022/08/10 09:09:05;;;;;;;1.80;1.67;;;;;;;32.04;22.99;99396.19;6947767;28;20189;-78
2022/08/10 09:12:38;;;;;;;2.13;1.40;;;;;;;31.85;22.72;99392.09;6948484;28;20314;-78
2022/08/10 09:16:17;;;;;;;3.27;1.80;;;;;;;33.42;20.91;99390.53;6947304;28;20274;-78
2022/08/10 09:19:47;;;;;;;2.17;1.70;;;;;;;32.87;21.79;99377.88;6952704;28;20207;-78
2022/08/10 09:23:14;;;;;;;4.57;1.60;;;;;;;33.54;21.30;99375.81;6947074;28;20765;-78
2022/08/10 09:26:43;;;;;;;1.73;1.63;;;;;;;31.64;21.03;99391.09;6952944;28;20224;-78
2022/08/10 09:30:09;;;;;;;5.17;1.90;;;;;;;32.91;19.82;99376.03;6951423;28;20191;-78
2022/08/10 09:33:38;;;;;;;2.27;1.60;;;;;;;32.19;20.48;99375.31;6951953;28;20296;-78
2022/08/10 09:37:06;;;;;;;5.07;1.57;;;;;;;30.92;22.16;99385.25;6960122;28;20195;-78
2022/08/10 09:40:35;;;;;;;1.40;1.30;;;;;;;31.68;20.75;99375.34;6981889;28;20197;-79
2022/08/10 09:44:08;;;;;;;2.07;1.53;;;;;;;32.69;19.62;99379.91;6957065;28;20234;-78
2022/08/10 09:47:47;;;;;;;2.50;1.30;;;;;;;33.52;19.43;99370.56;6952771;28;20641;-79
2022/08/10 09:51:11;;;;;;;4.97;1.97;;;;;;;32.71;19.93;99372.00;6953442;28;20295;-79
2022/08/10 09:54:43;;;;;;;1.40;1.17;;;;;;;33.17;19.32;99371.94;6953292;28;20246;-79
2022/08/10 09:58:25;;;;;;;2.07;1.60;;;;;;;31.18;20.18;99366.63;6952766;28;20206;-79
2022/08/10 10:01:55;;;;;;;2.70;1.63;;;;;;;30.01;22.48;99358.25;6952616;28;20203;-78
2022/08/10 10:05:27;;;;;;;2.03;1.63;;;;;;;31.28;21.13;99338.47;6952938;28;20218;-77
2022/08/10 10:08:58;;;;;;;3.80;1.60;;;;;;;31.44;21.04;99394.53;6952179;28;20203;-78
2022/08/10 10:12:25;;;;;;;5.10;2.17;;;;;;;31.33;21.35;99341.09;6954072;28;20233;-84
2022/08/10 10:15:52;;;;;;;2.20;1.50;;;;;;;32.67;19.94;99373.81;6953716;28;20213;-80
2022/08/10 10:19:34;;;;;;;4.17;1.90;;;;;;;33.23;19.16;99367.78;6953725;28;20237;-83
2022/08/10 10:23:01;;;;;;;3.60;1.73;;;;;;;32.39;20.60;99372.66;6954021;28;20309;-79
2022/08/10 10:26:29;;;;;;;2.50;1.73;;;;;;;32.97;19.36;99366.31;6953909;28;20218;-79
2022/08/10 10:29:55;;;;;;;2.23;1.47;;;;;;;32.74;19.00;99356.53;6953254;28;20194;-80
2022/08/10 10:33:20;;;;;;;1.80;1.70;;;;;;;31.50;19.93;99346.66;6953432;28;20226;-80
2022/08/10 10:36:44;;;;;;;1.50;1.40;;;;;;;32.62;19.18;99348.06;6953172;28;20211;-80
2022/08/10 10:40:08;;;;;;;1.80;1.70;;;;;;;34.30;17.73;99332.28;6953472;28;20228;-80
2022/08/10 10:43:42;;;;;;;1.47;1.37;;;;;;;33.50;18.81;99342.09;6955482;28;20238;-80
2022/08/10 10:47:14;;;;;;;1.43;1.33;;;;;;;34.17;17.18;99345.41;6949775;28;20218;-81
2022/08/10 10:50:42;;;;;;;2.00;1.70;;;;;;;31.66;19.55;99355.34;6925642;28;20242;-79
2022/08/10 10:54:09;;;;;;;2.83;1.90;;;;;;;31.93;19.63;99339.09;6924337;28;20309;-79
2022/08/10 10:57:38;;;;;;;3.33;1.30;;;;;;;32.54;19.73;99327.41;6924898;28;20679;-79
2022/08/10 11:01:05;;;;;;;3.03;1.40;;;;;;;33.29;18.80;99324.50;6948144;28;20195;-78
2022/08/10 11:04:30;;;;;;;2.17;1.80;;;;;;;34.75;17.62;99325.44;6957469;28;20254;-79
2022/08/10 11:07:57;;;;;;;2.87;1.63;;;;;;;33.40;18.89;99327.72;6951715;28;20223;-79
2022/08/10 11:11:22;;;;;;;5.27;1.83;;;;;;;34.71;17.79;99318.88;6951161;28;20198;-80
2022/08/10 11:14:54;;;;;;;3.57;1.40;;;;;;;33.06;19.38;99327.94;6951489;28;20227;-79
2022/08/10 11:18:22;;;;;;;2.53;1.50;;;;;;;32.96;18.83;99326.34;6955156;28;20191;-79
2022/08/10 11:22:01;;;;;;;3.70;1.60;;;;;;;34.15;18.39;99321.72;6956997;28;20209;-79
2022/08/10 11:25:28;;;;;;;1.40;1.30;;;;;;;33.77;18.37;99332.31;6951146;28;20198;-79
2022/08/10 11:29:00;;;;;;;4.07;1.70;;;;;;;33.71;18.31;99306.53;6950655;28;20712;-80
2022/08/10 11:32:26;;;;;;;5.27;1.50;;;;;;;33.91;18.19;99330.06;6950715;28;20646;-80
2022/08/10 11:35:50;;;;;;;3.90;1.67;;;;;;;33.46;18.91;99334.72;6951443;28;20203;-79
2022/08/10 11:39:16;;;;;;;1.80;1.70;;;;;;;32.31;20.29;99334.41;6950326;28;20211;-79
2022/08/10 11:42:41;;;;;;;2.30;1.80;;;;;;;32.76;19.58;99329.13;6950958;28;20223;-79
2022/08/10 11:46:18;;;;;;;3.23;1.70;;;;;;;31.66;20.54;99333.03;6950933;28;20309;-79
2022/08/10 11:49:52;;;;;;;3.77;1.70;;;;;;;32.02;19.93;99330.69;6950422;28;20196;-80
2022/08/10 11:53:18;;;;;;;3.50;1.50;;;;;;;31.12;21.08;99322.50;6948897;28;20241;-79
2022/08/10 11:56:46;;;;;;;2.70;1.50;;;;;;;32.62;19.71;99329.34;6952115;28;20191;-80
2022/08/10 12:00:09;;;;;;;3.07;1.47;;;;;;;32.11;19.89;99321.16;6949896;28;20670;-79
2022/08/10 12:03:32;;;;;;;1.63;1.53;;;;;;;32.81;19.25;99306.56;6950728;28;20253;-79
2022/08/10 12:06:54;;;;;;;3.03;1.70;;;;;;;33.53;18.71;99299.47;6951232;28;20290;-80
2022/08/10 12:10:18;;;;;;;1.80;1.60;;;;;;;33.82;18.27;99292.94;6951008;28;20203;-79
2022/08/10 12:13:46;;;;;;;3.97;1.60;;;;;;;34.17;17.67;99311.81;6950900;28;20698;-79
2022/08/10 12:17:10;;;;;;;1.40;1.30;;;;;;;31.55;19.76;99303.84;6950469;28;20217;-79
2022/08/10 12:20:35;;;;;;;2.57;1.40;;;;;;;31.81;19.07;99232.13;6950379;28;20211;-79
2022/08/10 12:24:01;;;;;;;2.20;1.53;;;;;;;31.00;20.62;99256.28;6950605;28;20246;-79
2022/08/10 12:27:29;;;;;;;2.80;1.70;;;;;;;33.15;18.82;99304.38;6950475;28;20219;-79
2022/08/10 12:30:54;;;;;;;4.53;1.53;;;;;;;34.40;17.80;99284.19;6949962;28;20191;-79
2022/08/10 12:34:20;;;;;;;1.70;1.40;;;;;;;32.71;18.49;99287.38;6949032;28;20299;-79
2022/08/10 12:37:46;;;;;;;2.20;1.47;;;;;;;32.99;18.24;99300.53;6949444;28;20213;-79
2022/08/10 12:41:17;;;;;;;2.33;1.57;;;;;;;32.08;19.29;99307.84;6949239;28;20571;-79
2022/08/10 12:44:44;;;;;;;4.37;1.90;;;;;;;31.99;19.37;99278.34;6949158;28;20304;-78
2022/08/10 12:48:11;;;;;;;3.13;1.70;;;;;;;32.96;18.45;99278.84;6942263;28;20680;-79
2022/08/10 12:51:34;;;;;;;3.50;1.70;;;;;;;32.33;19.10;99281.84;6929339;28;20216;-79
2022/08/10 12:54:56;;;;;;;3.23;1.60;;;;;;;33.44;18.48;99276.34;6929197;28;20235;-79
2022/08/10 12:58:20;;;;;;;2.40;1.60;;;;;;;34.26;16.86;99267.75;6948950;28;20192;-80
2022/08/10 13:01:44;;;;;;;4.23;1.80;;;;;;;31.71;18.85;99288.22;6926644;28;20199;-79
2022/08/10 13:05:09;;;;;;;4.03;1.60;;;;;;;33.38;18.00;99262.94;6921494;28;20228;-80
2022/08/10 13:12:14;;;;;;;1.87;1.60;;;;;;;33.26;17.75;99252.47;6923850;28;20192;-78
2022/08/10 13:15:37;;;;;;;5.63;1.83;;;;;;;33.42;17.94;99259.09;6923595;28;20306;-79
2022/08/10 13:19:02;;;;;;;1.67;1.57;;;;;;;33.99;17.66;99233.97;6949349;28;20218;-80
2022/08/10 13:22:27;;;;;;;3.67;1.80;;;;;;;33.50;17.56;99244.19;6949413;28;20219;-79
2022/08/10 13:25:50;;;;;;;1.70;1.60;;;;;;;34.75;16.66;99234.94;6950028;28;20265;-80
2022/08/10 13:29:15;;;;;;;2.87;1.63;;;;;;;34.16;16.63;99222.56;6949584;28;20285;-83
2022/08/10 13:32:39;;;;;;;4.30;1.67;;;;;;;32.68;18.00;99230.25;6950576;28;20250;-81
2022/08/10 13:36:02;;;;;;;2.70;1.63;;;;;;;32.39;17.89;99229.44;6948735;28;20249;-82
2022/08/10 13:39:26;;;;;;;2.53;1.47;;;;;;;32.47;18.17;99223.81;6949931;28;20188;-79
2022/08/10 13:42:48;;;;;;;2.17;1.60;;;;;;;33.30;18.03;99207.91;6948386;28;20255;-80
2022/08/10 13:46:14;;;;;;;4.73;1.50;;;;;;;33.12;17.24;99218.41;6948750;28;20246;-79
2022/08/10 13:49:46;;;;;;;2.10;1.47;;;;;;;33.08;17.59;99216.63;6947478;28;20285;-77
2022/08/10 13:53:12;;;;;;;3.77;1.43;;;;;;;32.60;18.43;99216.34;6932299;28;20235;-78
2022/08/10 13:56:35;;;;;;;5.87;1.80;;;;;;;33.08;17.79;99205.47;6947015;28;20222;-78
2022/08/10 13:59:57;;;;;;;3.10;1.60;;;;;;;33.50;17.80;99199.44;6945288;28;20597;-77
2022/08/10 14:03:20;;;;;;;2.60;1.60;;;;;;;34.51;16.93;99206.94;6944523;28;20231;-78
2022/08/10 14:06:50;;;;;;;5.37;1.63;;;;;;;33.91;17.35;99209.72;6945356;28;20729;-79
2022/08/10 14:10:12;;;;;;;1.67;1.53;;;;;;;33.02;17.54;99190.06;6921629;28;20676;-78
2022/08/10 14:13:36;;;;;;;2.67;1.63;;;;;;;33.13;17.71;99196.88;6923595;28;20240;-77
2022/08/10 14:16:59;;;;;;;2.30;1.40;;;;;;;33.81;17.44;99198.97;6923596;28;20295;-79
2022/08/10 14:20:20;;;;;;;2.43;1.63;;;;;;;33.90;17.05;99200.50;6943582;28;20353;-78
2022/08/10 14:23:46;;;;;;;1.17;1.13;;;;;;;33.59;17.31;99196.56;6950210;28;20703;-77
2022/08/10 14:27:10;;;;;;;1.33;1.23;;;;;;;34.32;16.87;99182.34;6940114;28;20612;-77
2022/08/10 14:30:33;;;;;;;1.70;1.60;;;;;;;34.08;16.89;99176.72;6950742;28;20217;-77
2022/08/10 14:33:56;;;;;;;4.47;1.33;;;;;;;34.25;16.85;99179.28;6951438;28;20678;-78
2022/08/10 14:37:24;;;;;;;1.67;1.57;;;;;;;32.64;17.41;99180.97;6950318;28;20195;-78
2022/08/10 14:40:51;;;;;;;3.87;1.70;;;;;;;33.05;17.45;99170.63;6954475;28;20206;-78
2022/08/10 14:44:13;;;;;;;1.67;1.53;;;;;;;32.59;17.90;99179.19;6924204;28;20318;-78
2022/08/10 14:47:38;;;;;;;1.77;1.60;;;;;;;32.46;17.57;99152.38;6923401;28;20255;-78
2022/08/10 14:51:01;;;;;;;1.70;1.40;;;;;;;33.75;17.13;99169.56;6925878;28;20566;-79
2022/08/10 14:54:27;;;;;;;2.47;1.60;;;;;;;33.99;16.89;99172.41;6928106;28;20310;-78
2022/08/10 14:57:50;;;;;;;5.60;1.60;;;;;;;32.86;17.20;99177.88;6925868;28;20231;-79
2022/08/10 15:01:18;;;;;;;2.70;1.63;;;;;;;32.71;17.44;99170.06;6927813;28;20260;-79
2022/08/10 15:04:40;;;;;;;1.70;1.43;;;;;;;32.80;17.09;99179.22;6922642;28;20615;-78
2022/08/10 15:08:02;;;;;;;3.77;1.63;;;;;;;32.65;17.35;99163.03;6928111;28;20600;-79
2022/08/10 15:11:24;;;;;;;1.60;1.50;;;;;;;32.77;17.36;99150.00;6923505;28;20247;-79
2022/08/10 15:14:48;;;;;;;2.73;1.67;;;;;;;33.13;17.73;99147.34;6923151;28;20754;-77
2022/08/10 15:18:10;;;;;;;2.07;1.57;;;;;;;33.39;17.22;99122.78;6926097;28;20204;-80
2022/08/10 15:21:34;;;;;;;3.13;1.73;;;;;;;33.04;17.12;99148.59;6950378;28;20285;-78
2022/08/10 15:25:03;;;;;;;1.63;1.53;;;;;;;33.14;17.59;99151.78;6950027;28;20265;-79
2022/08/10 15:28:25;;;;;;;2.33;1.50;;;;;;;33.42;17.00;99141.66;6949371;28;20606;-78
2022/08/10 15:39:10;;;;;;;2.00;1.60;;;;;;;34.23;16.33;99144.41;6949962;28;20179;-79
2022/08/10 15:42:33;;;;;;;13.63;2.60;;;;;;;33.52;17.51;99127.22;6952068;28;20364;-81
2022/08/10 15:45:57;;;;;;;3.17;1.70;;;;;;;33.58;16.98;99119.41;6952694;28;20206;-79
2022/08/10 15:49:26;;;;;;;1.93;1.60;;;;;;;32.53;18.13;99115.50;6941845;28;20259;-78
2022/08/10 15:52:54;;;;;;;3.03;1.63;;;;;;;32.89;17.68;99105.34;6923235;28;20738;-79
2022/08/10 15:56:21;;;;;;;2.83;1.90;;;;;;;33.30;17.33;99127.66;6922225;28;20188;-79
2022/08/10 15:59:45;;;;;;;1.73;1.50;;;;;;;32.61;18.11;99128.59;6922021;28;20206;-78
2022/08/10 16:03:17;;;;;;;2.67;1.67;;;;;;;31.93;18.56;99142.97;6922765;28;20259;-78
2022/08/10 16:06:42;;;;;;;2.47;1.60;;;;;;;32.84;17.42;99132.69;6957159;28;20194;-79
2022/08/10 16:10:08;;;;;;;4.60;1.60;;;;;;;33.01;17.43;99085.84;6960989;28;20275;-77
2022/08/10 16:13:31;;;;;;;2.40;1.90;;;;;;;33.51;17.22;99114.41;6948105;28;20222;-79
2022/08/10 16:16:55;;;;;;;3.30;1.50;;;;;;;33.46;16.97;99116.59;6948137;28;20412;-78
2022/08/10 16:20:21;;;;;;;2.97;1.77;;;;;;;33.26;17.14;99121.06;6946636;28;20280;-78